sensor_id;sensor_type;location;lat;lon;timestamp;temperature;humidity
53645;DHT22;39547;45.554;12.068;2023-04-03T00:04:08;12.00;71.80
53645;DHT22;39547;45.554;12.068;2023-04-03T00:10:09;12.00;71.80
53645;DHT22;39547;45.554;12.068;2023-04-03T00:16:11;12.00;72.00
53645;DHT22;39547;45.554;12.068;2023-04-03T00:22:13;11.90;72.50
53645;DHT22;39547;45.554;12.068;2023-04-03T00:28:14;11.80;72.60
53645;DHT22;39547;45.554;12.068;2023-04-03T00:34:18;11.80;72.70
53645;DHT22;39547;45.554;12.068;2023-04-03T00:40:23;11.80;72.90
53645;DHT22;39547;45.554;12.068;2023-04-03T00:46:24;11.90;72.90
53645;DHT22;39547;45.554;12.068;2023-04-03T00:52:28;12.00;73.00
53645;DHT22;39547;45.554;12.068;2023-04-03T00:58:34;12.00;73.10
53645;DHT22;39547;45.554;12.068;2023-04-03T01:04:40;12.10;73.10
53645;DHT22;39547;45.554;12.068;2023-04-03T01:10:42;12.10;73.10
53645;DHT22;39547;45.554;12.068;2023-04-03T01:16:54;12.20;73.10
53645;DHT22;39547;45.554;12.068;2023-04-03T01:28:59;12.00;73.20
53645;DHT22;39547;45.554;12.068;2023-04-03T01:35:01;12.00;73.20
53645;DHT22;39547;45.554;12.068;2023-04-03T01:41:02;12.00;73.10
53645;DHT22;39547;45.554;12.068;2023-04-03T01:47:06;12.00;73.10
53645;DHT22;39547;45.554;12.068;2023-04-03T01:53:08;12.00;73.30
53645;DHT22;39547;45.554;12.068;2023-04-03T01:59:10;11.90;73.30
53645;DHT22;39547;45.554;12.068;2023-04-03T02:05:11;11.90;73.40
53645;DHT22;39547;45.554;12.068;2023-04-03T02:11:13;11.90;73.40
53645;DHT22;39547;45.554;12.068;2023-04-03T02:17:15;11.80;73.40
53645;DHT22;39547;45.554;12.068;2023-04-03T02:23:17;11.80;73.40
53645;DHT22;39547;45.554;12.068;2023-04-03T02:29:19;11.80;73.50
53645;DHT22;39547;45.554;12.068;2023-04-03T02:35:21;11.70;73.50
53645;DHT22;39547;45.554;12.068;2023-04-03T02:41:23;11.70;73.50
53645;DHT22;39547;45.554;12.068;2023-04-03T02:47:28;11.70;73.50
53645;DHT22;39547;45.554;12.068;2023-04-03T02:53:29;11.60;73.30
53645;DHT22;39547;45.554;12.068;2023-04-03T02:59:32;11.50;73.30
53645;DHT22;39547;45.554;12.068;2023-04-03T03:05:34;11.30;73.40
53645;DHT22;39547;45.554;12.068;2023-04-03T03:11:36;11.30;73.50
53645;DHT22;39547;45.554;12.068;2023-04-03T03:17:37;11.20;73.60
53645;DHT22;39547;45.554;12.068;2023-04-03T03:23:39;11.20;73.80
53645;DHT22;39547;45.554;12.068;2023-04-03T03:29:41;11.20;74.10
53645;DHT22;39547;45.554;12.068;2023-04-03T03:35:43;11.10;74.20
53645;DHT22;39547;45.554;12.068;2023-04-03T03:41:45;11.00;74.50
53645;DHT22;39547;45.554;12.068;2023-04-03T03:47:47;11.00;74.70
53645;DHT22;39547;45.554;12.068;2023-04-03T03:53:49;11.00;75.00
53645;DHT22;39547;45.554;12.068;2023-04-03T03:59:53;11.00;75.10
53645;DHT22;39547;45.554;12.068;2023-04-03T04:05:55;11.00;75.30
53645;DHT22;39547;45.554;12.068;2023-04-03T04:11:56;11.00;75.50
53645;DHT22;39547;45.554;12.068;2023-04-03T04:17:58;11.00;75.70
53645;DHT22;39547;45.554;12.068;2023-04-03T04:24:00;11.00;75.90
53645;DHT22;39547;45.554;12.068;2023-04-03T04:30:02;10.90;76.10
53645;DHT22;39547;45.554;12.068;2023-04-03T04:36:04;11.00;76.30
53645;DHT22;39547;45.554;12.068;2023-04-03T04:42:07;10.90;76.40
53645;DHT22;39547;45.554;12.068;2023-04-03T04:48:14;10.90;76.50
53645;DHT22;39547;45.554;12.068;2023-04-03T04:54:16;10.80;76.80
53645;DHT22;39547;45.554;12.068;2023-04-03T05:00:19;10.80;76.90
53645;DHT22;39547;45.554;12.068;2023-04-03T05:06:20;10.70;77.20
53645;DHT22;39547;45.554;12.068;2023-04-03T05:12:22;10.70;77.40
53645;DHT22;39547;45.554;12.068;2023-04-03T05:18:29;10.70;77.50
53645;DHT22;39547;45.554;12.068;2023-04-03T05:24:34;10.80;77.60
53645;DHT22;39547;45.554;12.068;2023-04-03T05:30:36;10.90;77.70
53645;DHT22;39547;45.554;12.068;2023-04-03T05:36:39;10.90;77.80
53645;DHT22;39547;45.554;12.068;2023-04-03T05:42:43;10.90;77.80
53645;DHT22;39547;45.554;12.068;2023-04-03T05:48:45;11.00;77.80
53645;DHT22;39547;45.554;12.068;2023-04-03T05:54:51;11.10;77.70
53645;DHT22;39547;45.554;12.068;2023-04-03T06:00:58;11.10;77.90
53645;DHT22;39547;45.554;12.068;2023-04-03T06:07:00;11.20;78.10
53645;DHT22;39547;45.554;12.068;2023-04-03T06:13:02;11.30;78.00
53645;DHT22;39547;45.554;12.068;2023-04-03T06:19:04;11.60;77.80
53645;DHT22;39547;45.554;12.068;2023-04-03T06:25:06;11.70;77.50
53645;DHT22;39547;45.554;12.068;2023-04-03T06:31:07;11.80;77.20
53645;DHT22;39547;45.554;12.068;2023-04-03T06:37:21;12.00;76.50
53645;DHT22;39547;45.554;12.068;2023-04-03T06:43:22;12.10;75.40
53645;DHT22;39547;45.554;12.068;2023-04-03T06:49:25;12.20;75.20
53645;DHT22;39547;45.554;12.068;2023-04-03T06:55:27;12.40;73.70
53645;DHT22;39547;45.554;12.068;2023-04-03T07:01:29;12.50;72.00
53645;DHT22;39547;45.554;12.068;2023-04-03T07:07:31;12.70;71.20
53645;DHT22;39547;45.554;12.068;2023-04-03T07:13:33;12.70;71.60
53645;DHT22;39547;45.554;12.068;2023-04-03T07:19:34;12.70;69.70
53645;DHT22;39547;45.554;12.068;2023-04-03T07:25:40;12.90;70.40
53645;DHT22;39547;45.554;12.068;2023-04-03T07:31:42;12.90;70.00
53645;DHT22;39547;45.554;12.068;2023-04-03T07:37:45;13.10;69.40
53645;DHT22;39547;45.554;12.068;2023-04-03T07:43:47;13.20;70.20
53645;DHT22;39547;45.554;12.068;2023-04-03T07:49:50;13.50;68.70
53645;DHT22;39547;45.554;12.068;2023-04-03T07:55:52;13.70;67.90
53645;DHT22;39547;45.554;12.068;2023-04-03T08:01:56;14.10;66.60
53645;DHT22;39547;45.554;12.068;2023-04-03T08:07:57;14.30;65.10
53645;DHT22;39547;45.554;12.068;2023-04-03T08:13:59;14.30;62.60
53645;DHT22;39547;45.554;12.068;2023-04-03T08:20:02;14.60;64.50
53645;DHT22;39547;45.554;12.068;2023-04-03T08:26:14;15.10;60.50
53645;DHT22;39547;45.554;12.068;2023-04-03T08:32:16;15.20;59.40
53645;DHT22;39547;45.554;12.068;2023-04-03T08:38:19;15.20;57.60
53645;DHT22;39547;45.554;12.068;2023-04-03T08:50:56;15.00;56.40
53645;DHT22;39547;45.554;12.068;2023-04-03T08:57:00;14.60;55.80
53645;DHT22;39547;45.554;12.068;2023-04-03T09:03:03;14.50;57.70
53645;DHT22;39547;45.554;12.068;2023-04-03T09:15:23;14.70;58.20
53645;DHT22;39547;45.554;12.068;2023-04-03T09:21:38;15.30;56.70
53645;DHT22;39547;45.554;12.068;2023-04-03T09:27:39;15.90;56.70
53645;DHT22;39547;45.554;12.068;2023-04-03T09:33:41;16.00;56.80
53645;DHT22;39547;45.554;12.068;2023-04-03T09:39:52;16.00;54.70
53645;DHT22;39547;45.554;12.068;2023-04-03T09:45:55;15.90;53.80
53645;DHT22;39547;45.554;12.068;2023-04-03T09:52:05;15.80;55.50
53645;DHT22;39547;45.554;12.068;2023-04-03T09:58:35;15.80;55.50
53645;DHT22;39547;45.554;12.068;2023-04-03T10:04:40;16.10;52.60
53645;DHT22;39547;45.554;12.068;2023-04-03T10:10:45;16.50;53.60
53645;DHT22;39547;45.554;12.068;2023-04-03T10:17:09;16.50;54.20
53645;DHT22;39547;45.554;12.068;2023-04-03T10:23:26;16.60;49.40
53645;DHT22;39547;45.554;12.068;2023-04-03T10:42:43;16.90;49.60
53645;DHT22;39547;45.554;12.068;2023-04-03T10:55:50;17.50;46.00
53645;DHT22;39547;45.554;12.068;2023-04-03T11:01:58;17.20;46.40
53645;DHT22;39547;45.554;12.068;2023-04-03T11:08:08;17.40;46.70
53645;DHT22;39547;45.554;12.068;2023-04-03T11:14:29;17.80;45.80
53645;DHT22;39547;45.554;12.068;2023-04-03T11:20:33;18.00;45.30
53645;DHT22;39547;45.554;12.068;2023-04-03T11:26:40;18.20;46.00
53645;DHT22;39547;45.554;12.068;2023-04-03T11:32:55;18.30;46.00
53645;DHT22;39547;45.554;12.068;2023-04-03T11:39:01;18.40;44.70
53645;DHT22;39547;45.554;12.068;2023-04-03T11:45:56;18.60;46.80
53645;DHT22;39547;45.554;12.068;2023-04-03T11:51:57;18.70;46.00
53645;DHT22;39547;45.554;12.068;2023-04-03T12:04:08;18.80;44.00
53645;DHT22;39547;45.554;12.068;2023-04-03T12:10:18;18.70;42.60
53645;DHT22;39547;45.554;12.068;2023-04-03T12:22:28;19.80;45.00
53645;DHT22;39547;45.554;12.068;2023-04-03T12:28:36;20.50;43.50
53645;DHT22;39547;45.554;12.068;2023-04-03T12:47:37;22.70;39.30
53645;DHT22;39547;45.554;12.068;2023-04-03T12:53:41;23.30;38.10
53645;DHT22;39547;45.554;12.068;2023-04-03T12:59:44;23.70;36.10
53645;DHT22;39547;45.554;12.068;2023-04-03T13:05:47;24.30;35.70
53645;DHT22;39547;45.554;12.068;2023-04-03T13:11:54;24.70;32.00
53645;DHT22;39547;45.554;12.068;2023-04-03T13:17:58;25.00;34.00
53645;DHT22;39547;45.554;12.068;2023-04-03T13:24:01;25.50;32.50
53645;DHT22;39547;45.554;12.068;2023-04-03T13:30:05;26.10;30.30
53645;DHT22;39547;45.554;12.068;2023-04-03T13:36:18;26.20;30.60
53645;DHT22;39547;45.554;12.068;2023-04-03T13:42:28;26.70;29.00
53645;DHT22;39547;45.554;12.068;2023-04-03T13:54:38;27.20;28.20
53645;DHT22;39547;45.554;12.068;2023-04-03T14:01:20;27.30;27.40
53645;DHT22;39547;45.554;12.068;2023-04-03T14:07:22;27.40;26.10
53645;DHT22;39547;45.554;12.068;2023-04-03T14:13:24;27.80;26.40
53645;DHT22;39547;45.554;12.068;2023-04-03T14:19:34;27.80;25.70
53645;DHT22;39547;45.554;12.068;2023-04-03T14:25:37;28.00;25.60
53645;DHT22;39547;45.554;12.068;2023-04-03T14:31:40;27.80;24.80
53645;DHT22;39547;45.554;12.068;2023-04-03T14:37:42;27.70;24.90
53645;DHT22;39547;45.554;12.068;2023-04-03T14:43:45;27.80;24.30
53645;DHT22;39547;45.554;12.068;2023-04-03T14:49:48;26.90;24.80
53645;DHT22;39547;45.554;12.068;2023-04-03T14:55:49;24.90;26.00
53645;DHT22;39547;45.554;12.068;2023-04-03T15:01:51;23.30;26.70
53645;DHT22;39547;45.554;12.068;2023-04-03T15:07:54;22.20;28.20
53645;DHT22;39547;45.554;12.068;2023-04-03T15:13:57;20.80;29.50
53645;DHT22;39547;45.554;12.068;2023-04-03T15:19:59;19.70;31.10
53645;DHT22;39547;45.554;12.068;2023-04-03T15:26:01;19.00;31.70
53645;DHT22;39547;45.554;12.068;2023-04-03T15:32:03;18.80;33.10
53645;DHT22;39547;45.554;12.068;2023-04-03T15:38:04;18.80;33.00
53645;DHT22;39547;45.554;12.068;2023-04-03T15:44:06;18.90;33.40
53645;DHT22;39547;45.554;12.068;2023-04-03T15:50:08;19.20;33.00
53645;DHT22;39547;45.554;12.068;2023-04-03T15:56:09;19.20;32.50
53645;DHT22;39547;45.554;12.068;2023-04-03T16:02:13;18.80;32.30
53645;DHT22;39547;45.554;12.068;2023-04-03T16:08:14;19.40;32.70
53645;DHT22;39547;45.554;12.068;2023-04-03T16:14:17;20.80;30.50
53645;DHT22;39547;45.554;12.068;2023-04-03T16:20:18;20.30;30.10
53645;DHT22;39547;45.554;12.068;2023-04-03T16:26:20;18.80;31.40
53645;DHT22;39547;45.554;12.068;2023-04-03T16:32:22;17.70;33.30
53645;DHT22;39547;45.554;12.068;2023-04-03T16:38:24;17.00;34.50
53645;DHT22;39547;45.554;12.068;2023-04-03T16:44:26;16.60;35.30
53645;DHT22;39547;45.554;12.068;2023-04-03T16:50:27;16.10;35.90
53645;DHT22;39547;45.554;12.068;2023-04-03T16:56:29;15.80;37.20
53645;DHT22;39547;45.554;12.068;2023-04-03T17:02:30;15.40;37.60
53645;DHT22;39547;45.554;12.068;2023-04-03T17:08:32;15.10;38.10
53645;DHT22;39547;45.554;12.068;2023-04-03T17:14:34;14.90;38.30
53645;DHT22;39547;45.554;12.068;2023-04-03T17:20:36;14.80;39.40
53645;DHT22;39547;45.554;12.068;2023-04-03T17:26:40;14.60;39.60
53645;DHT22;39547;45.554;12.068;2023-04-03T17:32:42;14.40;40.10
53645;DHT22;39547;45.554;12.068;2023-04-03T17:38:43;14.20;40.60
53645;DHT22;39547;45.554;12.068;2023-04-03T17:44:45;14.20;40.40
53645;DHT22;39547;45.554;12.068;2023-04-03T17:50:46;14.10;42.20
53645;DHT22;39547;45.554;12.068;2023-04-03T17:56:48;14.00;42.50
53645;DHT22;39547;45.554;12.068;2023-04-03T18:02:53;14.00;42.70
53645;DHT22;39547;45.554;12.068;2023-04-03T18:09:00;13.90;43.70
53645;DHT22;39547;45.554;12.068;2023-04-03T18:15:04;13.80;44.50
53645;DHT22;39547;45.554;12.068;2023-04-03T18:21:09;13.80;44.80
53645;DHT22;39547;45.554;12.068;2023-04-03T18:27:14;13.70;45.40
53645;DHT22;39547;45.554;12.068;2023-04-03T18:33:16;13.70;45.60
53645;DHT22;39547;45.554;12.068;2023-04-03T18:39:17;13.50;45.90
53645;DHT22;39547;45.554;12.068;2023-04-03T18:45:21;13.40;46.10
53645;DHT22;39547;45.554;12.068;2023-04-03T18:51:23;13.30;46.40
53645;DHT22;39547;45.554;12.068;2023-04-03T18:57:25;13.30;46.80
53645;DHT22;39547;45.554;12.068;2023-04-03T19:03:28;13.20;47.00
53645;DHT22;39547;45.554;12.068;2023-04-03T19:09:30;13.20;47.80
53645;DHT22;39547;45.554;12.068;2023-04-03T19:15:31;13.20;47.80
53645;DHT22;39547;45.554;12.068;2023-04-03T19:21:33;13.10;47.30
53645;DHT22;39547;45.554;12.068;2023-04-03T19:27:39;13.00;47.30
53645;DHT22;39547;45.554;12.068;2023-04-03T19:33:41;12.90;47.20
53645;DHT22;39547;45.554;12.068;2023-04-03T19:39:44;12.90;47.50
53645;DHT22;39547;45.554;12.068;2023-04-03T19:45:46;12.80;48.10
53645;DHT22;39547;45.554;12.068;2023-04-03T19:51:47;12.80;48.20
53645;DHT22;39547;45.554;12.068;2023-04-03T19:57:49;12.70;48.80
53645;DHT22;39547;45.554;12.068;2023-04-03T20:03:50;12.60;48.50
53645;DHT22;39547;45.554;12.068;2023-04-03T20:09:52;12.50;48.50
53645;DHT22;39547;45.554;12.068;2023-04-03T20:15:53;12.40;49.50
53645;DHT22;39547;45.554;12.068;2023-04-03T20:21:58;12.30;50.10
53645;DHT22;39547;45.554;12.068;2023-04-03T20:28:00;12.20;49.70
53645;DHT22;39547;45.554;12.068;2023-04-03T20:34:01;12.20;49.70
53645;DHT22;39547;45.554;12.068;2023-04-03T20:40:04;12.10;50.40
53645;DHT22;39547;45.554;12.068;2023-04-03T20:46:05;12.00;51.00
53645;DHT22;39547;45.554;12.068;2023-04-03T20:52:07;11.90;51.40
53645;DHT22;39547;45.554;12.068;2023-04-03T20:58:08;11.90;51.70
53645;DHT22;39547;45.554;12.068;2023-04-03T21:04:19;11.80;52.40
53645;DHT22;39547;45.554;12.068;2023-04-03T21:23:05;11.50;50.80
53645;DHT22;39547;45.554;12.068;2023-04-03T21:29:07;11.50;50.40
53645;DHT22;39547;45.554;12.068;2023-04-03T21:35:09;11.50;51.70
53645;DHT22;39547;45.554;12.068;2023-04-03T21:41:10;11.40;52.00
53645;DHT22;39547;45.554;12.068;2023-04-03T21:47:11;11.40;50.60
53645;DHT22;39547;45.554;12.068;2023-04-03T21:53:13;11.30;47.90
53645;DHT22;39547;45.554;12.068;2023-04-03T21:59:15;11.20;50.80
53645;DHT22;39547;45.554;12.068;2023-04-03T22:05:17;11.20;51.10
53645;DHT22;39547;45.554;12.068;2023-04-03T22:11:18;11.10;49.90
53645;DHT22;39547;45.554;12.068;2023-04-03T22:17:23;11.00;51.10
53645;DHT22;39547;45.554;12.068;2023-04-03T22:23:24;11.00;51.30
53645;DHT22;39547;45.554;12.068;2023-04-03T22:29:27;11.00;51.80
53645;DHT22;39547;45.554;12.068;2023-04-03T22:35:28;11.00;51.60
53645;DHT22;39547;45.554;12.068;2023-04-03T22:41:30;10.90;51.80
53645;DHT22;39547;45.554;12.068;2023-04-03T22:47:31;10.90;51.90
53645;DHT22;39547;45.554;12.068;2023-04-03T22:53:33;10.80;51.80
53645;DHT22;39547;45.554;12.068;2023-04-03T22:59:35;10.70;50.70
53645;DHT22;39547;45.554;12.068;2023-04-03T23:05:39;10.60;51.50
53645;DHT22;39547;45.554;12.068;2023-04-03T23:11:40;10.50;52.30
53645;DHT22;39547;45.554;12.068;2023-04-03T23:17:42;10.50;52.00
53645;DHT22;39547;45.554;12.068;2023-04-03T23:23:44;10.40;52.90
53645;DHT22;39547;45.554;12.068;2023-04-03T23:29:45;10.20;52.60
53645;DHT22;39547;45.554;12.068;2023-04-03T23:35:47;10.20;52.60
53645;DHT22;39547;45.554;12.068;2023-04-03T23:41:49;10.10;52.60
53645;DHT22;39547;45.554;12.068;2023-04-03T23:47:50;10.00;53.70
53645;DHT22;39547;45.554;12.068;2023-04-03T23:53:51;9.80;53.60
53645;DHT22;39547;45.554;12.068;2023-04-03T23:59:53;9.70;54.20
